Time;durP1;ratioP1;P1;durP2;ratioP2;P2;SDS_P1;SDS_P2;PMS_P1;PMS_P2;Temp;Humidity;BMP_temperature;BMP_pressure;BME280_temperature;BME280_humidity;BME280_pressure;Samples;Min_cycle;Max_cycle;Signal;HPM_P1;HPM_P2
2022/04/23 00:02:11;;;;;;;11.47;10.27;;;10.70;1.00;;;;;;5099449;28;20312;-61
2022/04/23 00:04:37;;;;;;;10.93;9.37;;;10.60;1.00;;;;;;5108838;28;20310;-61
2022/04/23 00:07:05;;;;;;;12.30;10.60;;;10.60;1.00;;;;;;5105108;28;20206;-62
2022/04/23 00:09:30;;;;;;;13.33;10.60;;;10.50;1.00;;;;;;5104537;28;20440;-61
2022/04/23 00:11:58;;;;;;;14.27;11.10;;;10.60;1.00;;;;;;5103880;28;20550;-61
2022/04/23 00:14:24;;;;;;;14.27;11.50;;;10.40;1.00;;;;;;5104392;28;20513;-61
2022/04/23 00:16:50;;;;;;;14.10;12.40;;;10.30;1.00;;;;;;5102074;28;20827;-61
2022/04/23 00:19:16;;;;;;;14.13;11.90;;;10.30;1.00;;;;;;5100655;28;20210;-61
2022/04/23 00:21:42;;;;;;;14.80;11.70;;;10.20;1.00;;;;;;5110757;28;20868;-63
2022/04/23 00:24:08;;;;;;;14.07;11.47;;;10.20;1.00;;;;;;5095052;28;20570;-61
2022/04/23 00:26:33;;;;;;;12.47;10.97;;;10.20;1.00;;;;;;5102927;28;20265;-60
2022/04/23 00:28:59;;;;;;;12.97;11.10;;;;;;;;;;5093136;28;20462;-61
2022/04/23 00:31:26;;;;;;;11.27;10.13;;;10.00;1.00;;;;;;5103546;28;20194;-62
2022/04/23 00:33:52;;;;;;;12.30;11.00;;;10.00;1.00;;;;;;5108655;28;20488;-63
2022/04/23 00:36:18;;;;;;;12.13;10.87;;;10.00;1.00;;;;;;5106507;28;20464;-61
2022/04/23 00:38:49;;;;;;;15.13;12.33;;;9.90;1.00;;;;;;5101885;28;20530;-62
2022/04/23 00:44:01;;;;;;;15.20;12.23;;;9.90;1.00;;;;;;5106431;28;21442;-61
2022/04/23 00:46:26;;;;;;;14.30;11.90;;;9.90;1.00;;;;;;5101844;28;20518;-61
2022/04/23 00:48:52;;;;;;;15.20;12.60;;;9.80;1.00;;;;;;5104189;28;20439;-61
2022/04/23 00:51:18;;;;;;;15.53;12.77;;;9.70;1.00;;;;;;5105700;28;20216;-62
2022/04/23 00:53:47;;;;;;;17.00;12.80;;;9.70;1.00;;;;;;5097439;28;20198;-61
2022/04/23 00:56:13;;;;;;;16.13;11.90;;;9.60;1.00;;;;;;5101167;28;20457;-62
2022/04/23 00:58:39;;;;;;;15.43;12.53;;;9.60;1.00;;;;;;5101436;28;20952;-61
2022/04/23 01:01:05;;;;;;;14.70;13.10;;;9.50;1.00;;;;;;5106489;28;20439;-63
2022/04/23 01:03:32;;;;;;;14.87;12.07;;;9.50;1.00;;;;;;5099552;28;20465;-61
2022/04/23 01:05:58;;;;;;;15.33;12.10;;;9.40;1.00;;;;;;5102423;28;20221;-60
2022/04/23 01:08:26;;;;;;;15.30;13.17;;;9.40;1.00;;;;;;5098916;28;20451;-62
2022/04/23 01:10:52;;;;;;;14.83;11.57;;;9.40;1.00;;;;;;5102975;28;20208;-61
2022/04/23 01:13:18;;;;;;;16.07;12.97;;;9.40;1.00;;;;;;5102710;28;20447;-61
2022/04/23 01:15:59;;;;;;;18.50;13.27;;;9.30;1.00;;;;;;5103426;28;20531;-62
2022/04/23 01:18:24;;;;;;;14.83;11.70;;;9.20;1.00;;;;;;5098184;28;20201;-62
2022/04/23 01:20:51;;;;;;;13.37;11.23;;;9.20;1.00;;;;;;5098313;28;20452;-60
2022/04/23 01:23:17;;;;;;;13.93;12.10;;;9.10;1.00;;;;;;5096389;28;20640;-61
2022/04/23 01:25:43;;;;;;;15.23;12.40;;;9.00;1.00;;;;;;5101651;28;20484;-62
2022/04/23 01:28:09;;;;;;;20.50;13.43;;;9.00;1.00;;;;;;5104685;28;20459;-61
2022/04/23 01:30:34;;;;;;;15.10;12.43;;;8.90;1.00;;;;;;5104305;28;20224;-60
2022/04/23 01:33:00;;;;;;;15.60;12.30;;;8.90;1.00;;;;;;5108007;28;20452;-61
2022/04/23 01:35:27;;;;;;;15.40;10.93;;;;;;;;;;5106144;28;20210;-61
2022/04/23 01:37:53;;;;;;;14.40;11.27;;;8.80;1.00;;;;;;5101456;28;20196;-61
2022/04/23 01:40:19;;;;;;;15.97;13.20;;;8.80;1.00;;;;;;5102599;28;21040;-61
2022/04/23 01:42:45;;;;;;;16.43;12.80;;;;;;;;;;5100060;28;20273;-61
2022/04/23 01:45:10;;;;;;;15.13;12.80;;;8.80;1.00;;;;;;5107499;28;20949;-61
2022/04/23 01:47:36;;;;;;;15.07;11.90;;;8.70;1.00;;;;;;5110290;28;20448;-61
2022/04/23 01:50:02;;;;;;;15.67;13.00;;;8.70;1.00;;;;;;5101814;28;20194;-62
2022/04/23 01:52:27;;;;;;;15.20;12.00;;;8.70;1.00;;;;;;5100210;28;20683;-61
2022/04/23 01:54:53;;;;;;;13.23;11.27;;;8.70;1.00;;;;;;5099303;28;20534;-60
2022/04/23 01:57:19;;;;;;;15.33;11.83;;;8.70;1.00;;;;;;5103061;28;20315;-61
2022/04/23 01:59:44;;;;;;;13.70;12.00;;;8.60;1.00;;;;;;5095033;28;20225;-60
2022/04/23 02:02:10;;;;;;;16.10;12.73;;;8.60;1.00;;;;;;5103545;28;20190;-61
2022/04/23 02:04:35;;;;;;;13.63;10.67;;;8.50;1.00;;;;;;5106432;28;20986;-61
2022/04/23 02:07:01;;;;;;;14.53;11.93;;;8.50;1.00;;;;;;5104530;28;20233;-61
2022/04/23 02:09:26;;;;;;;12.90;11.33;;;8.70;1.00;;;;;;5103124;28;20194;-61
2022/04/23 02:11:52;;;;;;;15.00;12.40;;;8.40;1.00;;;;;;5105704;28;20971;-60
2022/04/23 02:14:17;;;;;;;16.33;12.03;;;8.40;1.00;;;;;;5100283;28;20632;-60
2022/04/23 02:16:43;;;;;;;14.87;12.90;;;8.30;1.00;;;;;;5100641;28;20210;-60
2022/04/23 02:19:09;;;;;;;13.10;10.33;;;8.40;1.00;;;;;;5104505;28;20472;-61
2022/04/23 02:21:34;;;;;;;13.87;11.80;;;8.40;1.00;;;;;;5104946;28;20202;-61
2022/04/23 02:24:03;;;;;;;15.87;11.93;;;8.30;1.00;;;;;;5098746;28;20270;-61
2022/04/23 02:26:29;;;;;;;16.60;12.10;;;8.30;1.00;;;;;;5102709;28;20187;-61
2022/04/23 02:28:54;;;;;;;15.87;12.80;;;8.30;1.00;;;;;;5107748;28;20501;-60
2022/04/23 02:31:20;;;;;;;13.77;12.10;;;8.30;1.00;;;;;;5104316;28;20190;-60
2022/04/23 02:33:46;;;;;;;15.83;12.80;;;8.20;1.00;;;;;;5104934;28;20194;-61
2022/04/23 02:36:17;;;;;;;12.70;11.20;;;8.20;1.00;;;;;;5097204;28;20202;-62
2022/04/23 02:38:43;;;;;;;14.67;12.33;;;8.20;1.00;;;;;;5099762;28;20256;-60
2022/04/23 02:41:09;;;;;;;14.83;12.60;;;8.20;1.00;;;;;;5100150;28;20976;-60
2022/04/23 02:43:35;;;;;;;16.37;12.93;;;8.20;1.00;;;;;;5094188;28;20224;-61
2022/04/23 02:46:14;;;;;;;16.70;13.20;;;8.20;1.00;;;;;;5103909;28;20483;-61
2022/04/23 02:48:40;;;;;;;14.33;12.43;;;8.20;1.00;;;;;;5102014;28;20451;-61
2022/04/23 02:51:05;;;;;;;13.50;11.60;;;8.30;1.00;;;;;;5109109;28;20447;-61
2022/04/23 02:53:31;;;;;;;14.50;12.57;;;8.20;1.00;;;;;;5092378;28;20179;-60
2022/04/23 02:55:57;;;;;;;12.97;11.50;;;;;;;;;;5106200;28;20194;-61
2022/04/23 02:58:25;;;;;;;17.20;12.97;;;8.20;1.00;;;;;;5096962;28;20244;-61
2022/04/23 03:00:52;;;;;;;16.83;12.60;;;8.20;1.00;;;;;;5095887;28;20463;-61
2022/04/23 03:03:18;;;;;;;16.67;12.67;;;8.20;1.00;;;;;;5099717;28;20450;-61
2022/04/23 03:05:44;;;;;;;13.67;11.60;;;8.20;1.00;;;;;;5094965;28;20559;-62
2022/04/23 03:08:11;;;;;;;14.13;11.27;;;8.20;1.00;;;;;;5104841;28;20917;-61
2022/04/23 03:10:39;;;;;;;14.40;11.80;;;8.10;1.00;;;;;;5093274;28;20553;-62
2022/04/23 03:13:07;;;;;;;16.30;11.70;;;8.10;1.00;;;;;;5099141;28;20793;-60
2022/04/23 03:15:34;;;;;;;13.57;11.67;;;8.10;1.00;;;;;;5104201;28;20566;-60
2022/04/23 03:18:05;;;;;;;13.40;11.70;;;8.10;1.00;;;;;;5098630;28;20781;-60
2022/04/23 03:20:32;;;;;;;15.57;12.10;;;8.00;1.00;;;;;;5103688;28;20534;-61
2022/04/23 03:22:58;;;;;;;15.83;12.50;;;8.00;1.00;;;;;;5100663;28;20447;-60
2022/04/23 03:25:23;;;;;;;13.50;12.07;;;8.00;1.00;;;;;;5097078;28;20500;-61
2022/04/23 03:27:49;;;;;;;16.97;12.33;;;8.00;1.00;;;;;;5100721;28;20183;-60
2022/04/23 03:30:14;;;;;;;16.10;12.90;;;8.00;1.00;;;;;;5104545;28;20186;-61
2022/04/23 03:32:41;;;;;;;15.37;11.97;;;8.10;1.00;;;;;;5107647;28;20182;-61
2022/04/23 03:35:08;;;;;;;12.93;11.50;;;8.00;1.00;;;;;;5095204;28;20192;-60
2022/04/23 03:37:34;;;;;;;14.90;11.63;;;8.10;1.00;;;;;;5098080;28;20467;-61
2022/04/23 03:39:59;;;;;;;14.73;11.83;;;8.00;1.00;;;;;;5107493;28;20902;-61
2022/04/23 03:42:25;;;;;;;12.07;10.77;;;8.00;1.00;;;;;;5107405;28;20479;-61
2022/04/23 03:44:50;;;;;;;13.30;11.90;;;8.00;1.00;;;;;;5104585;28;20208;-61
2022/04/23 03:47:16;;;;;;;16.50;12.53;;;7.90;1.00;;;;;;5100795;28;20182;-61
2022/04/23 03:49:42;;;;;;;15.17;13.57;;;;;;;;;;5105705;28;20178;-61
2022/04/23 03:52:10;;;;;;;16.87;14.40;;;8.00;1.00;;;;;;5100885;28;20197;-60
2022/04/23 03:54:36;;;;;;;15.50;13.10;;;7.90;1.00;;;;;;5103638;28;20463;-60
2022/04/23 03:57:01;;;;;;;22.00;15.00;;;7.80;1.00;;;;;;5094735;28;20451;-61
2022/04/23 03:59:29;;;;;;;16.90;13.90;;;7.70;1.00;;;;;;5103914;28;20947;-61
2022/04/23 04:01:55;;;;;;;24.00;14.83;;;7.70;1.00;;;;;;5100640;28;20186;-61
2022/04/23 04:04:21;;;;;;;19.57;15.60;;;7.60;1.00;;;;;;5092901;28;20809;-62
2022/04/23 04:06:46;;;;;;;22.90;17.90;;;7.60;1.00;;;;;;5093623;28;20490;-61
2022/04/23 04:09:12;;;;;;;18.13;14.03;;;7.60;1.00;;;;;;5102835;28;20219;-60
2022/04/23 04:14:22;;;;;;;18.50;13.80;;;7.70;1.00;;;;;;5098316;28;20193;-60
2022/04/23 04:16:49;;;;;;;16.10;12.43;;;7.80;1.00;;;;;;5105077;28;20448;-60
2022/04/23 04:19:15;;;;;;;19.43;14.10;;;7.70;1.00;;;;;;5100749;28;20210;-61
2022/04/23 04:21:43;;;;;;;17.90;15.00;;;7.70;1.00;;;;;;5105751;28;20588;-60
2022/04/23 04:24:12;;;;;;;19.57;14.73;;;7.70;1.00;;;;;;5102847;28;20457;-61
2022/04/23 04:26:40;;;;;;;17.77;13.83;;;7.80;1.00;;;;;;5109834;28;20443;-61
2022/04/23 04:29:06;;;;;;;16.90;13.03;;;7.90;1.00;;;;;;5103926;28;20444;-60
2022/04/23 04:31:50;;;;;;;17.90;14.77;;;7.80;1.00;;;;;;5100090;28;20452;-60
2022/04/23 04:34:29;;;;;;;18.27;13.80;;;7.80;1.00;;;;;;5102519;28;20190;-61
2022/04/23 04:37:21;;;;;;;17.70;14.50;;;8.00;1.00;;;;;;5110917;28;21070;-61
2022/04/23 04:39:47;;;;;;;19.37;14.43;;;8.10;1.00;;;;;;5106284;28;20453;-61
2022/04/23 04:42:12;;;;;;;19.30;14.23;;;8.10;1.00;;;;;;5106378;28;20422;-61
2022/04/23 04:44:38;;;;;;;15.13;13.23;;;8.20;1.00;;;;;;5105156;28;20204;-61
2022/04/23 04:47:05;;;;;;;21.13;14.73;;;8.20;1.00;;;;;;5107990;28;20185;-61
2022/04/23 04:49:31;;;;;;;18.23;14.30;;;8.20;1.00;;;;;;5104588;28;20455;-60
2022/04/23 04:51:56;;;;;;;18.30;13.93;;;8.10;1.00;;;;;;5103522;28;20547;-61
2022/04/23 04:54:22;;;;;;;17.70;15.70;;;8.20;1.00;;;;;;5100886;28;20504;-61
2022/04/23 04:56:52;;;;;;;16.10;13.40;;;8.20;1.00;;;;;;5101647;28;20198;-61
2022/04/23 04:59:20;;;;;;;20.43;16.13;;;8.30;1.00;;;;;;5106536;28;20467;-61
2022/04/23 05:01:46;;;;;;;17.60;14.90;;;;;;;;;;5096699;28;20456;-60
2022/04/23 05:04:12;;;;;;;17.93;14.67;;;8.50;1.00;;;;;;5101232;28;20579;-60
2022/04/23 05:06:38;;;;;;;19.37;15.00;;;8.50;1.00;;;;;;5109066;28;20468;-61
2022/04/23 05:09:03;;;;;;;30.57;27.57;;;8.60;1.00;;;;;;5107403;28;20979;-60
2022/04/23 05:11:29;;;;;;;18.33;16.43;;;8.70;1.00;;;;;;5102976;28;20711;-61
2022/04/23 05:13:55;;;;;;;21.20;16.30;;;8.70;1.00;;;;;;5100477;28;20674;-61
2022/04/23 05:16:21;;;;;;;16.60;14.80;;;8.90;1.00;;;;;;5108328;28;20201;-60
2022/04/23 05:18:46;;;;;;;18.57;15.37;;;9.00;1.00;;;;;;5109141;28;20216;-61
2022/04/23 05:21:12;;;;;;;18.77;14.73;;;9.10;1.00;;;;;;5107987;28;20715;-61
2022/04/23 05:23:37;;;;;;;20.47;15.23;;;9.20;1.00;;;;;;5106684;28;20193;-61
2022/04/23 05:26:06;;;;;;;18.07;15.70;;;9.30;1.00;;;;;;5104584;28;20185;-61
2022/04/23 05:28:32;;;;;;;18.87;15.40;;;9.40;1.00;;;;;;5107347;28;20186;-60
2022/04/23 05:30:58;;;;;;;17.30;14.50;;;;;;;;;;5098694;28;20521;-60
2022/04/23 05:33:23;;;;;;;17.53;15.33;;;9.60;1.00;;;;;;5094961;28;20920;-61
2022/04/23 05:35:49;;;;;;;17.17;14.80;;;9.70;1.00;;;;;;5094214;28;20537;-61
2022/04/23 05:38:17;;;;;;;18.63;15.23;;;9.70;1.00;;;;;;5092047;28;20205;-61
2022/04/23 05:40:43;;;;;;;18.10;15.47;;;9.80;1.00;;;;;;5102891;28;20190;-62
2022/04/23 05:43:09;;;;;;;18.07;16.17;;;9.80;1.00;;;;;;5102880;28;20456;-61
2022/04/23 05:45:34;;;;;;;16.40;14.53;;;9.90;1.00;;;;;;5099658;28;20268;-61
2022/04/23 05:48:00;;;;;;;15.53;14.00;;;;;;;;;;5103276;28;20174;-60
2022/04/23 05:50:26;;;;;;;17.23;14.40;;;10.10;1.00;;;;;;5101702;28;20193;-60
2022/04/23 05:52:52;;;;;;;14.43;12.93;;;10.20;1.00;;;;;;5103917;28;20447;-62
2022/04/23 05:55:17;;;;;;;17.30;14.40;;;10.20;1.00;;;;;;5098605;28;20668;-62
2022/04/23 05:57:43;;;;;;;14.53;13.10;;;10.40;1.00;;;;;;5101979;28;20474;-62
2022/04/23 06:00:10;;;;;;;16.07;13.30;;;10.50;1.00;;;;;;5095007;28;20221;-63
2022/04/23 06:02:36;;;;;;;15.03;12.60;;;10.60;1.00;;;;;;5104366;28;20183;-62
2022/04/23 06:05:02;;;;;;;15.73;12.90;;;10.60;1.00;;;;;;5103744;28;20475;-62
2022/04/23 06:07:28;;;;;;;14.67;12.37;;;10.60;1.00;;;;;;5105531;28;20190;-63
2022/04/23 06:09:54;;;;;;;13.83;11.83;;;10.80;1.00;;;;;;5097184;28;20448;-62
2022/04/23 06:12:19;;;;;;;12.83;10.93;;;10.90;1.00;;;;;;5107017;28;20454;-61
2022/04/23 06:14:44;;;;;;;13.27;11.33;;;11.10;1.00;;;;;;5104833;28;20567;-63
2022/04/23 06:17:12;;;;;;;12.60;11.30;;;11.10;1.00;;;;;;5096954;28;20201;-62
2022/04/23 06:19:38;;;;;;;11.47;10.20;;;11.30;1.00;;;;;;5106328;28;20539;-63
2022/04/23 06:22:05;;;;;;;11.77;10.63;;;11.40;1.00;;;;;;5102546;28;20502;-59
2022/04/23 06:24:31;;;;;;;12.10;10.80;;;11.50;1.00;;;;;;5099454;28;20441;-58
2022/04/23 06:26:56;;;;;;;12.60;11.07;;;11.60;1.00;;;;;;5105748;28;21015;-60
2022/04/23 06:29:22;;;;;;;12.80;11.40;;;11.70;1.00;;;;;;5098491;28;20440;-61
2022/04/23 06:31:47;;;;;;;12.23;11.07;;;11.90;1.00;;;;;;5107835;28;20193;-59
2022/04/23 06:34:13;;;;;;;11.87;10.20;;;12.00;1.00;;;;;;5095460;28;20189;-59
2022/04/23 06:36:40;;;;;;;10.67;9.57;;;12.00;1.00;;;;;;5102775;28;20182;-60
2022/04/23 06:39:06;;;;;;;10.07;9.00;;;12.00;1.00;;;;;;5101400;28;20496;-60
2022/04/23 06:41:32;;;;;;;9.83;8.83;;;12.10;1.00;;;;;;5104581;28;20535;-60
2022/04/23 06:43:57;;;;;;;9.60;8.30;;;12.00;1.00;;;;;;5101137;28;20513;-59
2022/04/23 06:46:23;;;;;;;9.00;8.07;;;12.20;1.00;;;;;;5099961;28;20444;-59
2022/04/23 06:48:49;;;;;;;9.67;8.63;;;12.30;1.00;;;;;;5106646;28;20303;-61
2022/04/23 06:51:14;;;;;;;9.83;8.57;;;12.30;1.00;;;;;;5098328;28;20190;-61
2022/04/23 06:53:40;;;;;;;9.70;8.67;;;12.40;1.00;;;;;;5100323;28;20242;-59
2022/04/23 06:56:05;;;;;;;8.67;7.10;;;12.40;1.00;;;;;;5100430;28;20664;-60
2022/04/23 06:58:31;;;;;;;8.17;6.60;;;12.40;1.00;;;;;;5093284;28;20201;-61
2022/04/23 07:00:58;;;;;;;7.27;6.47;;;;;;;;;;5100603;28;20220;-60
2022/04/23 07:03:24;;;;;;;6.37;5.77;;;12.50;1.00;;;;;;5100128;28;20182;-59
2022/04/23 07:05:50;;;;;;;6.20;5.00;;;12.90;1.00;;;;;;5102057;28;20482;-61
2022/04/23 07:08:15;;;;;;;5.83;5.33;;;12.80;1.00;;;;;;5102296;28;20499;-59
2022/04/23 07:10:44;;;;;;;5.20;4.70;;;12.80;1.00;;;;;;5093677;28;20182;-60
2022/04/23 07:13:10;;;;;;;4.60;4.20;;;12.80;1.00;;;;;;5101860;28;20277;-61
2022/04/23 07:15:36;;;;;;;4.90;4.27;;;13.10;1.00;;;;;;5102609;28;20482;-60
2022/04/23 07:18:01;;;;;;;4.40;4.00;;;13.30;1.00;;;;;;5094431;28;20479;-61
2022/04/23 07:20:27;;;;;;;4.30;3.93;;;13.30;1.00;;;;;;5094421;28;20269;-61
2022/04/23 07:25:38;;;;;;;4.03;3.73;;;14.00;1.00;;;;;;5101746;28;20251;-61
2022/04/23 07:28:04;;;;;;;5.13;4.53;;;14.00;1.00;;;;;;5096670;28;20448;-62
2022/04/23 07:30:30;;;;;;;4.33;3.20;;;13.90;1.00;;;;;;5092655;28;20441;-60
2022/04/23 07:32:57;;;;;;;3.90;3.50;;;13.90;1.00;;;;;;5091809;28;20908;-62
2022/04/23 07:38:16;;;;;;;3.50;3.10;;;14.20;1.00;;;;;;5097683;28;20446;-60
2022/04/23 07:40:42;;;;;;;4.03;3.60;;;14.40;1.00;;;;;;5093722;28;20444;-62
2022/04/23 07:43:12;;;;;;;3.50;3.20;;;14.40;1.00;;;;;;5101412;28;20561;-61
2022/04/23 07:45:43;;;;;;;3.50;3.20;;;14.50;1.00;;;;;;5098170;28;20443;-60
2022/04/23 07:48:10;;;;;;;4.33;3.13;;;14.50;1.00;;;;;;5101110;28;20843;-62
2022/04/23 07:50:37;;;;;;;3.83;3.53;;;14.70;1.00;;;;;;5104584;28;20492;-60
2022/04/23 07:53:03;;;;;;;3.53;3.10;;;14.50;1.00;;;;;;5104210;28;20493;-62
2022/04/23 07:55:38;;;;;;;3.20;2.63;;;14.50;1.00;;;;;;5107175;28;20819;-61
2022/04/23 07:58:05;;;;;;;3.23;2.93;;;14.90;1.00;;;;;;5104586;28;20466;-62
2022/04/23 08:00:35;;;;;;;3.00;2.70;;;15.10;1.00;;;;;;5101865;28;20449;-61
2022/04/23 08:03:03;;;;;;;3.87;2.93;;;15.20;1.00;;;;;;5106670;28;20418;-62
2022/04/23 08:05:29;;;;;;;3.37;3.07;;;15.20;1.00;;;;;;5104048;28;20466;-60
2022/04/23 08:07:55;;;;;;;3.20;2.90;;;15.20;1.00;;;;;;5103831;28;20418;-61
2022/04/23 08:10:20;;;;;;;3.33;3.03;;;15.00;1.00;;;;;;5099377;28;20455;-62
2022/04/23 08:12:46;;;;;;;2.73;2.53;;;15.20;1.00;;;;;;5099514;28;20196;-62
2022/04/23 08:15:12;;;;;;;3.17;2.97;;;14.90;1.00;;;;;;5110511;28;20193;-61
2022/04/23 08:17:38;;;;;;;5.10;3.37;;;15.20;1.00;;;;;;5107786;28;20185;-63
2022/04/23 08:20:05;;;;;;;3.70;3.30;;;15.20;1.00;;;;;;5110885;28;20209;-61
2022/04/23 08:22:30;;;;;;;3.87;3.53;;;15.20;1.00;;;;;;5108255;28;20440;-61
2022/04/23 08:24:56;;;;;;;3.50;3.20;;;15.40;1.00;;;;;;5103163;28;20414;-61
2022/04/23 08:27:22;;;;;;;4.67;3.10;;;;;;;;;;5102564;28;20711;-62
2022/04/23 08:32:31;;;;;;;3.27;3.00;;;16.00;1.00;;;;;;5111120;28;20943;-62
2022/04/23 08:34:57;;;;;;;5.40;3.43;;;15.90;1.00;;;;;;5107466;28;20468;-62
2022/04/23 08:37:24;;;;;;;3.33;3.03;;;15.90;1.00;;;;;;5110388;28;20269;-59
2022/04/23 08:39:50;;;;;;;3.43;3.13;;;16.00;1.00;;;;;;5108524;28;20441;-60
2022/04/23 08:42:17;;;;;;;3.30;2.97;;;16.10;1.00;;;;;;5094870;28;20490;-59
2022/04/23 08:44:43;;;;;;;3.23;3.00;;;16.00;1.00;;;;;;5095779;28;20186;-61
2022/04/23 08:47:11;;;;;;;3.90;3.60;;;;;;;;;;5096667;28;20793;-60
2022/04/23 08:49:40;;;;;;;3.00;2.80;;;16.30;1.00;;;;;;5098878;28;20444;-61
2022/04/23 08:52:16;;;;;;;3.83;3.50;;;15.90;1.00;;;;;;5104386;28;20512;-61
2022/04/23 08:54:43;;;;;;;3.83;3.07;;;15.90;1.00;;;;;;5108810;28;20469;-61
2022/04/23 08:57:08;;;;;;;3.73;3.43;;;16.00;1.00;;;;;;5099472;28;20427;-59
2022/04/23 08:59:35;;;;;;;3.37;3.07;;;16.10;1.00;;;;;;5098031;28;20960;-58
2022/04/23 09:02:01;;;;;;;3.40;3.10;;;16.10;1.00;;;;;;5103053;28;20224;-60
2022/04/23 09:04:27;;;;;;;3.53;3.23;;;16.10;1.00;;;;;;5103293;28;20439;-61
2022/04/23 09:06:53;;;;;;;3.37;3.07;;;16.40;1.00;;;;;;5110228;28;20218;-60
2022/04/23 09:09:21;;;;;;;4.63;3.90;;;16.70;1.00;;;;;;5099155;28;20612;-60
2022/04/23 09:11:56;;;;;;;4.13;3.47;;;16.60;1.00;;;;;;5109970;28;20458;-59
2022/04/23 09:14:30;;;;;;;4.53;4.13;;;16.20;1.00;;;;;;5101448;28;20451;-61
2022/04/23 09:25:17;;;;;;;3.53;3.23;;;16.30;1.00;;;;;;5099585;28;20551;-61
2022/04/23 09:27:44;;;;;;;4.17;3.77;;;16.30;1.00;;;;;;5105171;28;20445;-61
2022/04/23 09:30:12;;;;;;;3.93;3.50;;;16.20;1.00;;;;;;5102884;28;20876;-60
2022/04/23 09:33:00;;;;;;;3.40;3.10;;;16.40;1.00;;;;;;5100587;28;20928;-61
2022/04/23 09:35:26;;;;;;;3.57;3.27;;;16.40;1.00;;;;;;5100431;28;20444;-62
2022/04/23 09:38:11;;;;;;;3.60;3.30;;;16.40;1.00;;;;;;5105832;28;20439;-63
2022/04/23 09:40:37;;;;;;;3.47;3.17;;;16.40;1.00;;;;;;5095731;28;20500;-62
2022/04/23 09:43:09;;;;;;;3.60;3.30;;;17.00;1.00;;;;;;5109589;28;20444;-62
2022/04/23 09:45:41;;;;;;;3.10;2.90;;;17.10;1.00;;;;;;5104789;28;20193;-61
2022/04/23 09:48:15;;;;;;;4.23;3.83;;;17.10;1.00;;;;;;5108975;28;21005;-61
2022/04/23 09:50:43;;;;;;;4.20;3.20;;;17.00;1.00;;;;;;5105615;28;20455;-62
2022/04/23 09:53:19;;;;;;;3.77;3.47;;;16.90;1.00;;;;;;5102911;28;20417;-62
2022/04/23 09:55:46;;;;;;;3.27;2.97;;;16.90;1.00;;;;;;5108642;28;20439;-62
2022/04/23 09:58:13;;;;;;;3.43;3.13;;;16.90;1.00;;;;;;5099524;28;20425;-59
2022/04/23 10:00:45;;;;;;;3.97;3.23;;;17.00;1.00;;;;;;5093591;28;20553;-60
2022/04/23 10:03:12;;;;;;;4.13;3.73;;;17.30;1.00;;;;;;5093532;28;20453;-59
2022/04/23 10:05:40;;;;;;;5.10;4.60;;;16.90;1.00;;;;;;5090821;28;20435;-60
2022/04/23 10:08:11;;;;;;;3.70;3.40;;;16.80;1.00;;;;;;5091374;28;20429;-60
2022/04/23 10:10:52;;;;;;;3.60;3.30;;;16.90;1.00;;;;;;5091151;28;20441;-61
2022/04/23 10:13:18;;;;;;;5.70;3.57;;;17.10;1.00;;;;;;5091303;28;20423;-61
2022/04/23 10:15:46;;;;;;;3.60;3.30;;;17.10;1.00;;;;;;5102500;28;20512;-61
2022/04/23 10:18:12;;;;;;;4.03;3.60;;;17.30;1.00;;;;;;5095208;28;20774;-59
2022/04/23 10:20:40;;;;;;;3.20;2.90;;;17.20;1.00;;;;;;5090661;28;20505;-61
2022/04/23 10:23:13;;;;;;;4.00;3.60;;;17.20;1.00;;;;;;5094981;28;20432;-59
2022/04/23 10:25:49;;;;;;;4.50;3.63;;;17.50;1.00;;;;;;5110955;28;20428;-60
2022/04/23 10:28:17;;;;;;;3.60;2.73;;;17.50;1.00;;;;;;5107737;28;20435;-61
2022/04/23 10:30:46;;;;;;;4.00;3.13;;;17.40;1.00;;;;;;5090588;28;20864;-61
2022/04/23 10:33:25;;;;;;;3.87;3.50;;;17.50;1.00;;;;;;5093635;28;20782;-62
2022/04/23 10:36:12;;;;;;;3.30;3.00;;;17.50;1.00;;;;;;5111095;28;20428;-60
2022/04/23 10:38:45;;;;;;;3.37;3.07;;;17.60;1.00;;;;;;5110853;28;20955;-61
2022/04/23 10:41:13;;;;;;;4.63;2.87;;;17.60;1.00;;;;;;5110845;28;20428;-61
2022/04/23 10:43:49;;;;;;;6.50;3.60;;;17.70;1.00;;;;;;5110795;28;20467;-61
2022/04/23 10:46:51;;;;;;;3.50;3.20;;;17.90;1.00;;;;;;5100352;28;21035;-60
2022/04/23 10:49:23;;;;;;;3.20;3.00;;;17.90;1.00;;;;;;5027987;28;20832;-62
2022/04/23 10:51:57;;;;;;;3.33;3.03;;;17.70;1.00;;;;;;5097693;28;20439;-60
2022/04/23 10:54:44;;;;;;;3.63;3.10;;;17.80;1.00;;;;;;5110857;28;20464;-61
2022/04/23 10:57:13;;;;;;;3.63;3.30;;;18.10;1.00;;;;;;5105014;28;20780;-61
2022/04/23 10:59:49;;;;;;;3.50;3.20;;;18.10;1.00;;;;;;5107757;28;20892;-61
2022/04/23 11:02:23;;;;;;;5.10;4.33;;;18.50;1.00;;;;;;5110929;28;20450;-60
2022/04/23 11:13:26;;;;;;;2.70;2.50;;;18.60;1.00;;;;;;5110703;28;20488;-62
2022/04/23 11:16:07;;;;;;;3.80;3.50;;;18.60;1.00;;;;;;5105291;28;20520;-60
2022/04/23 11:18:34;;;;;;;3.50;3.20;;;18.60;1.00;;;;;;5109124;28;20488;-59
2022/04/23 11:21:13;;;;;;;3.37;2.93;;;18.70;1.00;;;;;;5090185;28;20525;-59
2022/04/23 11:23:42;;;;;;;2.77;2.57;;;18.70;1.00;;;;;;5108227;28;20496;-61
2022/04/23 11:26:12;;;;;;;5.30;3.60;;;18.80;1.00;;;;;;5110579;28;20418;-60
2022/04/23 11:28:42;;;;;;;5.00;3.83;;;18.10;1.00;;;;;;5110231;28;20505;-61
2022/04/23 11:31:09;;;;;;;4.07;3.70;;;18.30;1.00;;;;;;5114709;28;20426;-62
2022/04/23 11:33:36;;;;;;;3.97;3.67;;;18.60;1.00;;;;;;5115073;28;20508;-60
2022/04/23 11:36:02;;;;;;;5.73;3.67;;;18.60;1.00;;;;;;5115039;28;20448;-61
2022/04/23 11:38:29;;;;;;;4.23;3.83;;;18.80;1.00;;;;;;5114758;28;20554;-60
2022/04/23 11:40:54;;;;;;;4.33;3.93;;;19.10;1.00;;;;;;5114521;28;20432;-62
2022/04/23 11:43:30;;;;;;;4.03;3.63;;;19.30;1.00;;;;;;5114111;28;20791;-60
2022/04/23 11:46:09;;;;;;;3.43;3.13;;;19.30;1.00;;;;;;5114722;28;20170;-61
2022/04/23 11:48:42;;;;;;;3.70;3.40;;;19.50;1.00;;;;;;5114506;28;20410;-61
2022/04/23 11:51:12;;;;;;;4.17;3.77;;;19.30;1.00;;;;;;5096380;28;20411;-60
2022/04/23 11:53:57;;;;;;;4.07;3.67;;;19.40;1.00;;;;;;5094018;28;20404;-60
2022/04/23 11:56:25;;;;;;;4.10;3.40;;;19.40;1.00;;;;;;5093916;28;20860;-60
2022/04/23 11:59:02;;;;;;;4.53;4.13;;;19.50;1.00;;;;;;5093753;28;20777;-62
2022/04/23 12:01:28;;;;;;;4.40;4.03;;;19.50;1.00;;;;;;5095183;28;21170;-61
2022/04/23 12:03:55;;;;;;;4.17;3.70;;;19.30;1.00;;;;;;5096708;28;20400;-63
2022/04/23 12:06:22;;;;;;;3.87;3.57;;;19.40;1.00;;;;;;5093627;28;20283;-61
2022/04/23 12:08:48;;;;;;;3.33;3.03;;;16.40;1.00;;;;;;5093603;28;20436;-61
2022/04/23 12:11:21;;;;;;;4.53;4.13;;;19.50;1.00;;;;;;5093556;28;20411;-64
2022/04/23 12:13:49;;;;;;;4.03;3.73;;;18.90;1.00;;;;;;5092380;28;20437;-62
2022/04/23 12:16:39;;;;;;;4.53;3.70;;;18.80;1.00;;;;;;5093662;28;20464;-60
2022/04/23 12:19:17;;;;;;;4.50;3.40;;;19.10;1.00;;;;;;5097594;28;21329;-63
2022/04/23 12:21:56;;;;;;;4.40;4.00;;;19.30;1.00;;;;;;5094681;28;20523;-61
2022/04/23 12:24:32;;;;;;;4.83;4.43;;;19.30;1.00;;;;;;5093367;28;20444;-61
2022/04/23 12:27:03;;;;;;;6.20;3.87;;;19.30;1.00;;;;;;5093522;28;20570;-62
2022/04/23 12:40:50;;;;;;;4.13;3.60;;;19.90;1.00;;;;;;5112757;28;20449;-61
2022/04/23 12:43:20;;;;;;;4.03;3.73;;;19.80;1.00;;;;;;5112888;28;20450;-60
2022/04/23 12:45:46;;;;;;;5.17;4.40;;;19.90;1.00;;;;;;5113194;28;20432;-61
2022/04/23 12:48:12;;;;;;;7.30;6.10;;;19.90;1.00;;;;;;5113363;28;21237;-63
2022/04/23 12:50:38;;;;;;;7.20;6.37;;;19.50;1.00;;;;;;5113410;28;20502;-64
2022/04/23 12:53:04;;;;;;;7.40;5.93;;;19.50;1.00;;;;;;5113282;28;20190;-61
2022/04/23 12:55:33;;;;;;;6.20;4.77;;;19.00;1.00;;;;;;5113376;28;20946;-60
2022/04/23 12:58:08;;;;;;;5.13;4.63;;;18.50;1.00;;;;;;5112896;28;20824;-61
2022/04/23 13:00:40;;;;;;;4.60;4.20;;;18.70;1.00;;;;;;5112741;28;20441;-62
2022/04/23 13:03:20;;;;;;;5.10;4.60;;;18.90;1.00;;;;;;5113133;28;20406;-60
2022/04/23 13:05:45;;;;;;;5.63;3.97;;;18.70;1.00;;;;;;5111348;28;20550;-61
2022/04/23 13:10:58;;;;;;;5.10;4.70;;;18.80;1.00;;;;;;5092734;28;20232;-61
2022/04/23 13:13:24;;;;;;;4.60;4.20;;;19.30;1.00;;;;;;5097287;28;20462;-62
2022/04/23 13:15:49;;;;;;;6.60;4.07;;;19.30;1.00;;;;;;5105353;28;20419;-62
2022/04/23 13:18:15;;;;;;;4.40;4.07;;;18.80;1.00;;;;;;5105695;28;20182;-60
2022/04/23 13:20:40;;;;;;;4.20;3.90;;;18.80;1.00;;;;;;5092312;28;20260;-60
2022/04/23 13:23:06;;;;;;;6.50;4.53;;;18.80;1.00;;;;;;5090962;28;20197;-61
2022/04/23 13:25:31;;;;;;;3.87;3.57;;;19.00;1.00;;;;;;5092171;28;20187;-61
2022/04/23 13:27:57;;;;;;;5.03;4.63;;;19.00;1.00;;;;;;5098148;28;20209;-63
2022/04/23 13:30:23;;;;;;;5.90;4.53;;;19.30;1.00;;;;;;5112548;28;20192;-61
2022/04/23 13:32:49;;;;;;;4.90;4.43;;;19.30;1.00;;;;;;5112636;28;20473;-61
2022/04/23 13:35:15;;;;;;;4.37;4.00;;;18.70;1.00;;;;;;5112533;28;20178;-61
2022/04/23 13:37:42;;;;;;;4.50;4.10;;;18.50;1.00;;;;;;5112664;28;20478;-62
2022/04/23 13:40:10;;;;;;;4.70;4.30;;;18.40;1.00;;;;;;5112131;28;20528;-61
2022/04/23 13:42:36;;;;;;;4.77;4.27;;;18.60;1.00;;;;;;5112690;28;20862;-62